createdAt,value
2022-10-07T00:01:29.406Z,6.90
2022-10-07T00:03:57.823Z,6.93
2022-10-07T00:06:26.935Z,7.00
2022-10-07T00:08:55.715Z,6.88
2022-10-07T00:11:28.141Z,7.50
2022-10-07T00:13:58.483Z,6.63
2022-10-07T00:19:01.114Z,6.38
2022-10-07T00:21:32.139Z,6.50
2022-10-07T00:24:01.582Z,6.57
2022-10-07T00:26:33.339Z,6.25
2022-10-07T00:29:02.888Z,6.93
2022-10-07T00:31:33.131Z,6.43
2022-10-07T00:34:04.782Z,6.05
2022-10-07T00:36:35.423Z,5.95
2022-10-07T00:39:05.951Z,5.97
2022-10-07T00:44:38.929Z,5.93
2022-10-07T00:47:14.178Z,6.05
2022-10-07T00:49:46.419Z,6.35
2022-10-07T00:52:17.856Z,5.97
2022-10-07T00:54:46.226Z,5.93
2022-10-07T00:57:15.902Z,5.43
2022-10-07T00:59:44.611Z,6.22
2022-10-07T01:02:12.909Z,6.00
2022-10-07T01:04:42.660Z,6.07
2022-10-07T01:07:11.108Z,6.13
2022-10-07T01:09:39.917Z,6.07
2022-10-07T01:12:14.766Z,5.43
2022-10-07T01:14:53.618Z,5.82
2022-10-07T01:17:28.621Z,6.20
2022-10-07T01:20:21.620Z,5.70
2022-10-07T01:23:01.181Z,6.20
2022-10-07T01:25:46.037Z,6.13
2022-10-07T01:28:20.074Z,6.55
2022-10-07T01:30:54.916Z,6.03
2022-10-07T01:33:29.447Z,5.90
2022-10-07T01:36:04.037Z,6.28
2022-10-07T01:38:35.961Z,6.40
2022-10-07T01:41:09.449Z,6.30
2022-10-07T01:43:40.523Z,7.22
2022-10-07T01:46:12.901Z,6.95
2022-10-07T01:48:42.037Z,6.70
2022-10-07T01:51:10.960Z,5.97
2022-10-07T01:53:51.958Z,5.80
2022-10-07T01:56:43.928Z,6.55
2022-10-07T01:59:41.113Z,6.20
2022-10-07T02:02:19.772Z,5.68
2022-10-07T02:04:59.229Z,6.30
2022-10-07T02:07:40.861Z,5.85
2022-10-07T02:10:14.455Z,5.97
2022-10-07T02:12:50.137Z,5.72
2022-10-07T02:15:27.185Z,5.78
2022-10-07T02:17:59.148Z,5.93
2022-10-07T02:20:32.436Z,5.70
2022-10-07T02:23:03.503Z,6.00
2022-10-07T02:25:37.556Z,6.13
2022-10-07T02:28:08.396Z,6.55
2022-10-07T02:30:40.460Z,5.72
2022-10-07T02:33:10.801Z,5.97
2022-10-07T02:35:44.634Z,6.00
2022-10-07T02:38:15.899Z,5.97
2022-10-07T02:40:54.575Z,6.18
2022-10-07T02:43:30.699Z,5.82
2022-10-07T02:46:08.225Z,6.00
2022-10-07T02:48:42.380Z,6.13
2022-10-07T02:51:21.032Z,6.07
2022-10-07T02:53:54.446Z,6.15
2022-10-07T02:56:26.903Z,6.07
2022-10-07T02:58:56.809Z,5.97
2022-10-07T03:01:31.093Z,6.25
2022-10-07T03:04:00.118Z,5.38
2022-10-07T03:06:30.451Z,5.75
2022-10-07T03:09:02.350Z,6.18
2022-10-07T03:11:30.752Z,6.07
2022-10-07T03:13:59.644Z,6.35
2022-10-07T03:16:29.374Z,6.03
2022-10-07T03:18:59.163Z,6.13
2022-10-07T03:21:33.977Z,6.53
2022-10-07T03:24:06.014Z,7.07
2022-10-07T03:26:43.245Z,6.82
2022-10-07T03:31:43.741Z,6.65
2022-10-07T03:34:12.713Z,6.93
2022-10-07T03:36:43.527Z,6.93
2022-10-07T03:39:13.624Z,7.57
2022-10-07T03:41:43.117Z,7.80
2022-10-07T03:44:12.484Z,7.28
2022-10-07T03:46:41.103Z,7.50
2022-10-07T03:49:11.536Z,6.88
2022-10-07T03:51:39.876Z,5.90
2022-10-07T03:54:10.925Z,6.82
2022-10-07T03:56:40.737Z,6.38
2022-10-07T03:59:09.232Z,6.55
2022-10-07T04:01:38.427Z,6.57
2022-10-07T04:04:08.054Z,6.40
2022-10-07T04:06:40.242Z,6.78
2022-10-07T04:09:13.884Z,6.68
2022-10-07T04:11:43.971Z,7.65
2022-10-07T04:14:13.447Z,7.80
2022-10-07T04:16:43.338Z,6.80
2022-10-07T04:19:14.184Z,7.10
2022-10-07T04:21:45.553Z,6.60
2022-10-07T04:24:13.831Z,7.20
2022-10-07T04:26:42.661Z,7.30
2022-10-07T04:29:11.540Z,6.70
2022-10-07T04:31:40.234Z,7.70
2022-10-07T04:34:10.193Z,7.38
2022-10-07T04:36:42.367Z,7.60
2022-10-07T04:39:17.427Z,6.63
2022-10-07T04:41:54.924Z,7.05
2022-10-07T04:44:29.006Z,7.07
2022-10-07T04:47:05.459Z,7.68
2022-10-07T04:49:35.477Z,8.40
2022-10-07T04:52:06.381Z,7.90
2022-10-07T04:54:40.516Z,7.07
2022-10-07T04:57:10.024Z,14.60
2022-10-07T04:59:42.635Z,10.95
2022-10-07T05:02:15.715Z,8.68
2022-10-07T05:04:46.178Z,13.20
2022-10-07T05:07:14.786Z,9.55
2022-10-07T05:09:44.985Z,7.22
2022-10-07T05:12:17.685Z,6.75
2022-10-07T05:14:47.737Z,6.88
2022-10-07T05:17:16.896Z,6.50
2022-10-07T05:19:45.761Z,6.30
2022-10-07T05:22:14.029Z,6.65
2022-10-07T05:24:44.471Z,6.47
2022-10-07T05:27:15.070Z,6.90
2022-10-07T05:29:44.372Z,7.15
2022-10-07T05:32:13.356Z,6.85
2022-10-07T05:34:41.756Z,12.43
2022-10-07T05:37:10.745Z,9.82
2022-10-07T05:39:39.577Z,8.98
2022-10-07T05:42:16.700Z,10.75
2022-10-07T05:44:52.782Z,8.73
2022-10-07T05:47:22.188Z,9.30
2022-10-07T05:49:51.885Z,9.55
2022-10-07T05:52:21.649Z,8.60
2022-10-07T05:54:51.976Z,8.75
2022-10-07T05:57:24.105Z,9.48
2022-10-07T05:59:52.769Z,8.52
2022-10-07T06:02:23.052Z,9.20
2022-10-07T06:04:52.084Z,8.45
2022-10-07T06:07:28.299Z,9.63
2022-10-07T06:10:18.826Z,13.15
2022-10-07T06:13:07.366Z,12.32
2022-10-07T06:15:37.000Z,11.50
2022-10-07T06:18:06.340Z,14.10
2022-10-07T06:20:35.286Z,12.32
2022-10-07T06:23:04.991Z,13.20
2022-10-07T06:25:34.685Z,12.60
2022-10-07T06:28:04.360Z,13.75
2022-10-07T06:30:35.008Z,14.00
2022-10-07T06:33:04.028Z,13.65
2022-10-07T06:35:34.274Z,14.07
2022-10-07T06:38:02.554Z,12.75
2022-10-07T06:40:30.914Z,13.18
2022-10-07T06:42:59.755Z,13.25
2022-10-07T06:45:38.235Z,14.30
2022-10-07T06:48:07.082Z,12.05
2022-10-07T06:50:35.770Z,13.80
2022-10-07T06:53:05.163Z,13.00
2022-10-07T06:55:37.550Z,12.95
2022-10-07T06:58:11.479Z,13.25
2022-10-07T07:00:43.235Z,14.13
2022-10-07T07:03:12.612Z,14.43
2022-10-07T07:05:44.601Z,11.90
2022-10-07T07:08:17.190Z,14.05
2022-10-07T07:10:47.252Z,13.50
2022-10-07T07:13:16.386Z,14.15
2022-10-07T07:15:56.161Z,13.50
2022-10-07T07:18:25.292Z,13.07
2022-10-07T07:20:54.743Z,12.90
2022-10-07T07:23:24.607Z,12.60
2022-10-07T07:25:53.372Z,12.87
2022-10-07T07:28:21.779Z,12.52
2022-10-07T07:30:52.513Z,12.25
2022-10-07T07:33:20.953Z,11.60
2022-10-07T07:35:51.028Z,20.85
2022-10-07T07:38:23.422Z,15.82
2022-10-07T07:40:55.704Z,13.45
2022-10-07T07:43:24.028Z,12.05
2022-10-07T07:45:55.800Z,12.27
2022-10-07T07:48:24.141Z,13.80
2022-10-07T07:50:52.860Z,14.02
2022-10-07T07:53:22.885Z,11.32
2022-10-07T07:55:56.129Z,11.43
2022-10-07T07:58:25.813Z,13.80
2022-10-07T08:01:03.529Z,14.55
2022-10-07T08:03:32.500Z,16.45
2022-10-07T08:06:03.213Z,14.85
2022-10-07T08:08:33.077Z,15.63
2022-10-07T08:11:08.852Z,14.05
2022-10-07T08:13:39.586Z,18.52
2022-10-07T08:16:13.406Z,17.35
2022-10-07T08:18:45.875Z,15.20
2022-10-07T08:21:16.253Z,14.73
2022-10-07T08:23:44.993Z,16.73
2022-10-07T08:26:13.258Z,16.40
2022-10-07T08:28:42.216Z,16.67
2022-10-07T08:31:15.533Z,14.25
2022-10-07T08:33:45.479Z,14.77
2022-10-07T08:36:16.168Z,14.70
2022-10-07T08:38:48.745Z,15.13
2022-10-07T08:41:25.886Z,15.95
2022-10-07T08:43:56.424Z,15.43
2022-10-07T08:46:32.020Z,13.52
2022-10-07T08:49:05.031Z,12.55
2022-10-07T08:51:41.766Z,12.07
2022-10-07T08:54:15.231Z,14.27
2022-10-07T08:56:45.096Z,15.45
2022-10-07T08:59:21.366Z,17.65
2022-10-07T09:02:10.589Z,16.50
2022-10-07T09:04:48.288Z,16.83
2022-10-07T09:07:25.406Z,15.77
2022-10-07T09:09:59.713Z,14.50
2022-10-07T09:12:39.650Z,14.80
2022-10-07T09:15:18.097Z,14.30
2022-10-07T09:17:54.459Z,15.00
2022-10-07T09:20:27.829Z,13.77
2022-10-07T09:22:58.640Z,17.42
2022-10-07T09:25:28.853Z,16.77
2022-10-07T09:27:57.717Z,15.00
2022-10-07T09:30:29.540Z,14.70
2022-10-07T09:32:59.171Z,14.18
2022-10-07T09:35:31.642Z,13.93
2022-10-07T09:38:03.233Z,14.13
2022-10-07T09:40:37.724Z,16.15
2022-10-07T09:43:13.864Z,13.43
2022-10-07T09:45:47.709Z,13.82
2022-10-07T09:48:24.420Z,13.95
2022-10-07T09:50:53.001Z,13.70
2022-10-07T09:53:23.992Z,14.02
2022-10-07T09:55:54.107Z,14.93
2022-10-07T09:58:27.087Z,14.73
2022-10-07T10:00:57.785Z,15.00
2022-10-07T10:03:32.519Z,15.00
2022-10-07T10:06:02.661Z,14.52
2022-10-07T10:08:33.907Z,16.27
2022-10-07T10:11:04.880Z,15.63
2022-10-07T10:13:35.109Z,17.48
2022-10-07T10:16:05.670Z,14.63
2022-10-07T10:18:38.398Z,16.52
2022-10-07T10:21:27.647Z,15.05
2022-10-07T10:23:58.061Z,15.15
2022-10-07T10:26:57.984Z,17.77
2022-10-07T10:29:47.684Z,17.55
2022-10-07T10:32:55.707Z,17.38
2022-10-07T10:35:29.173Z,16.77
2022-10-07T10:38:06.357Z,14.63
2022-10-07T10:40:40.216Z,15.98
2022-10-07T10:43:21.926Z,15.68
2022-10-07T10:46:07.408Z,16.17
2022-10-07T10:48:42.554Z,15.25
2022-10-07T10:51:31.383Z,15.65
2022-10-07T10:54:14.351Z,14.67
2022-10-07T10:56:48.228Z,15.98
2022-10-07T10:59:34.161Z,15.85
2022-10-07T11:02:16.869Z,15.50
2022-10-07T11:04:51.212Z,15.43
2022-10-07T11:07:25.832Z,13.50
2022-10-07T11:09:59.476Z,13.32
2022-10-07T11:12:31.540Z,14.63
2022-10-07T11:15:05.684Z,14.00
2022-10-07T11:17:37.490Z,13.45
2022-10-07T11:20:17.286Z,14.02
2022-10-07T11:22:53.673Z,15.00
2022-10-07T11:25:28.929Z,12.57
2022-10-07T11:28:04.350Z,14.52
2022-10-07T11:30:49.295Z,13.57
2022-10-07T11:33:24.496Z,14.48
2022-10-07T11:35:57.519Z,14.57
2022-10-07T11:38:33.328Z,13.60
2022-10-07T11:41:05.744Z,14.43
2022-10-07T11:43:39.087Z,14.57
2022-10-07T11:50:16.791Z,16.42
2022-10-07T11:55:41.716Z,16.20
2022-10-07T11:58:25.430Z,14.25
2022-10-07T12:01:32.454Z,15.73
2022-10-07T12:04:35.298Z,13.15
2022-10-07T12:07:34.899Z,16.38
2022-10-07T12:10:25.777Z,15.07
2022-10-07T12:12:58.260Z,15.40
2022-10-07T12:15:32.787Z,14.07
2022-10-07T12:18:26.215Z,14.50
2022-10-07T12:21:05.597Z,12.60
2022-10-07T12:23:42.552Z,12.65
2022-10-07T12:26:52.075Z,13.60
2022-10-07T12:29:45.191Z,12.45
2022-10-07T12:32:49.008Z,11.95
2022-10-07T12:35:53.960Z,13.82
2022-10-07T12:38:25.981Z,13.32
2022-10-07T12:41:13.072Z,14.90
2022-10-07T12:43:56.705Z,12.70
2022-10-07T12:46:30.207Z,12.10
2022-10-07T12:49:04.047Z,11.30
2022-10-07T12:51:39.294Z,11.65
2022-10-07T12:54:15.938Z,11.38
2022-10-07T12:56:45.740Z,10.70
2022-10-07T12:59:47.639Z,9.73
2022-10-07T13:02:58.961Z,9.95
2022-10-07T13:06:09.341Z,9.73
2022-10-07T13:09:10.412Z,9.23
2022-10-07T13:12:11.488Z,8.85
2022-10-07T13:14:54.733Z,8.90
2022-10-07T13:17:36.379Z,9.15
2022-10-07T13:20:21.214Z,7.68
2022-10-07T13:22:51.281Z,8.57
2022-10-07T13:25:22.120Z,8.45
2022-10-07T13:27:54.693Z,8.30
2022-10-07T13:30:36.085Z,9.07
2022-10-07T13:33:17.440Z,9.07
2022-10-07T13:35:45.868Z,9.40
2022-10-07T13:38:26.358Z,8.07
2022-10-07T13:40:59.044Z,8.35
2022-10-07T13:43:31.107Z,9.40
2022-10-07T13:46:01.415Z,9.90
2022-10-07T13:48:35.177Z,8.60
2022-10-07T13:51:04.159Z,9.63
2022-10-07T13:53:36.829Z,8.85
2022-10-07T13:56:07.389Z,8.70
2022-10-07T13:58:37.986Z,8.40
2022-10-07T14:01:08.398Z,8.57
2022-10-07T14:04:18.045Z,8.73
2022-10-07T14:06:58.795Z,8.57
2022-10-07T14:09:44.999Z,9.02
2022-10-07T14:12:16.885Z,8.20
2022-10-07T14:14:47.500Z,8.75
2022-10-07T14:17:34.588Z,9.32
2022-10-07T14:20:05.639Z,8.23
2022-10-07T14:22:38.573Z,7.50
2022-10-07T14:25:18.901Z,8.07
2022-10-07T14:30:57.493Z,8.65
2022-10-07T14:33:48.307Z,8.27
2022-10-07T14:36:18.561Z,8.63
2022-10-07T14:38:49.352Z,8.48
2022-10-07T14:41:23.270Z,8.38
2022-10-07T14:43:54.076Z,8.82
2022-10-07T14:46:24.306Z,8.32
2022-10-07T14:48:54.129Z,8.98
2022-10-07T14:51:25.064Z,9.10
2022-10-07T14:53:57.384Z,8.73
2022-10-07T14:56:29.986Z,8.65
2022-10-07T14:58:58.588Z,8.27
2022-10-07T15:01:29.806Z,8.10
2022-10-07T15:03:58.901Z,9.13
2022-10-07T15:06:30.635Z,8.82
2022-10-07T15:09:00.596Z,8.30
2022-10-07T15:11:31.736Z,10.13
2022-10-07T15:14:00.755Z,10.38
2022-10-07T15:16:29.139Z,8.50
2022-10-07T15:18:58.997Z,8.07
2022-10-07T15:21:29.375Z,8.10
2022-10-07T15:23:58.181Z,9.10
2022-10-07T15:26:26.691Z,10.02
2022-10-07T15:28:58.365Z,10.30
2022-10-07T15:31:29.164Z,10.30
2022-10-07T15:33:58.623Z,10.75
2022-10-07T15:36:29.059Z,10.52
2022-10-07T15:41:40.705Z,11.65
2022-10-07T15:44:16.088Z,11.95
2022-10-07T15:46:45.907Z,12.25
2022-10-07T15:49:15.209Z,12.15
2022-10-07T15:51:43.698Z,12.57
2022-10-07T15:54:12.104Z,11.82
2022-10-07T15:56:40.502Z,12.15
2022-10-07T15:59:10.456Z,12.82
2022-10-07T16:01:39.230Z,11.63
2022-10-07T16:04:13.389Z,11.57
2022-10-07T16:06:42.359Z,17.02
2022-10-07T16:09:11.843Z,26.25
2022-10-07T16:11:41.532Z,19.90
2022-10-07T16:14:12.421Z,20.73
2022-10-07T16:16:41.736Z,17.50
2022-10-07T16:19:11.530Z,19.35
2022-10-07T16:21:41.772Z,18.70
2022-10-07T16:24:14.533Z,15.63
2022-10-07T16:26:43.222Z,17.80
2022-10-07T16:29:34.348Z,15.73
2022-10-07T16:32:03.039Z,24.25
2022-10-07T16:34:35.537Z,25.83
2022-10-07T16:37:05.860Z,14.93
2022-10-07T16:39:34.271Z,14.85
2022-10-07T16:42:02.646Z,16.90
2022-10-07T16:44:32.424Z,16.88
2022-10-07T16:47:01.408Z,25.17
2022-10-07T16:49:36.502Z,15.27
2022-10-07T16:52:06.376Z,12.77
2022-10-07T16:54:35.572Z,12.57
2022-10-07T16:57:04.411Z,12.97
2022-10-07T16:59:34.610Z,12.95
2022-10-07T17:02:05.018Z,12.75
2022-10-07T17:07:07.773Z,11.95
2022-10-07T17:09:36.837Z,13.48
2022-10-07T17:12:06.820Z,14.95
2022-10-07T17:14:38.551Z,14.23
2022-10-07T17:17:07.862Z,13.32
2022-10-07T17:19:36.700Z,13.45
2022-10-07T17:22:05.290Z,14.48
2022-10-07T17:24:35.456Z,14.02
2022-10-07T17:27:07.811Z,17.23
2022-10-07T17:29:39.093Z,15.70
2022-10-07T17:32:09.793Z,16.60
2022-10-07T17:34:41.917Z,19.48
2022-10-07T17:37:13.065Z,16.77
2022-10-07T17:39:41.302Z,23.73
2022-10-07T17:42:09.583Z,65.40
2022-10-07T17:44:39.412Z,31.60
2022-10-07T17:47:07.816Z,39.20
2022-10-07T17:49:36.052Z,26.15
2022-10-07T17:52:04.386Z,21.55
2022-10-07T17:54:32.657Z,19.38
2022-10-07T17:57:00.931Z,19.40
2022-10-07T17:59:29.324Z,18.83
2022-10-07T18:01:59.003Z,17.00
2022-10-07T18:04:27.494Z,17.63
2022-10-07T18:06:56.181Z,19.00
2022-10-07T18:09:24.505Z,21.50
2022-10-07T18:12:10.194Z,21.02
2022-10-07T18:14:56.076Z,21.27
2022-10-07T18:17:25.755Z,21.75
2022-10-07T18:19:54.133Z,25.03
2022-10-07T18:22:22.494Z,21.08
2022-10-07T18:24:50.825Z,20.45
2022-10-07T18:27:27.327Z,19.08
2022-10-07T18:29:56.602Z,17.80
2022-10-07T18:32:26.579Z,17.27
2022-10-07T18:34:54.890Z,17.65
2022-10-07T18:37:23.893Z,19.10
2022-10-07T18:39:52.481Z,19.92
2022-10-07T18:42:20.800Z,23.42
2022-10-07T18:44:50.303Z,21.75
2022-10-07T18:47:18.772Z,18.17
2022-10-07T18:49:48.549Z,17.45
2022-10-07T18:52:17.999Z,20.65
2022-10-07T18:54:46.309Z,18.48
2022-10-07T18:57:14.901Z,17.02
2022-10-07T18:59:43.313Z,19.10
2022-10-07T19:02:12.435Z,27.30
2022-10-07T19:04:41.215Z,30.98
2022-10-07T19:07:11.159Z,17.25
2022-10-07T19:09:39.525Z,16.10
2022-10-07T19:12:28.384Z,16.75
2022-10-07T19:14:55.956Z,18.20
2022-10-07T19:17:24.273Z,16.00
2022-10-07T19:19:52.956Z,16.30
2022-10-07T19:22:22.638Z,14.50
2022-10-07T19:25:08.889Z,14.98
2022-10-07T19:27:38.608Z,18.67
2022-10-07T19:30:08.622Z,19.10
2022-10-07T19:32:36.952Z,18.07
2022-10-07T19:35:06.233Z,18.10
2022-10-07T19:37:35.831Z,19.30
2022-10-07T19:40:04.347Z,18.25
2022-10-07T19:42:32.648Z,19.38
2022-10-07T19:45:00.962Z,19.00
2022-10-07T19:47:29.959Z,19.30
2022-10-07T19:49:58.208Z,19.90
2022-10-07T19:52:27.413Z,20.35
2022-10-07T19:54:57.152Z,19.27
2022-10-07T19:57:25.675Z,19.37
2022-10-07T19:59:54.064Z,19.88
2022-10-07T20:02:22.380Z,19.13
2022-10-07T20:04:50.663Z,20.38
2022-10-07T20:07:19.480Z,17.30
2022-10-07T20:09:47.731Z,16.38
2022-10-07T20:12:17.359Z,17.75
2022-10-07T20:14:46.325Z,20.07
2022-10-07T20:17:24.645Z,19.70
2022-10-07T20:19:53.696Z,16.83
2022-10-07T20:22:22.092Z,15.20
2022-10-07T20:24:50.333Z,15.90
2022-10-07T20:27:20.047Z,18.85
2022-10-07T20:30:02.429Z,18.47
2022-10-07T20:32:34.011Z,20.80
2022-10-07T20:35:10.685Z,20.57
2022-10-07T20:37:39.166Z,19.58
2022-10-07T20:40:25.680Z,22.73
2022-10-07T20:42:55.657Z,23.27
2022-10-07T20:45:24.721Z,22.98
2022-10-07T20:47:55.200Z,22.73
2022-10-07T20:52:51.950Z,24.48
2022-10-07T20:55:21.169Z,24.27
2022-10-07T20:57:51.414Z,24.83
2022-10-07T21:00:21.619Z,24.42
2022-10-07T21:02:50.777Z,23.65
2022-10-07T21:05:19.532Z,24.02
2022-10-07T21:07:52.481Z,24.83
2022-10-07T21:10:22.940Z,23.85
2022-10-07T21:12:51.542Z,23.73
2022-10-07T21:15:30.329Z,23.17
2022-10-07T21:17:59.177Z,24.55
2022-10-07T21:20:27.488Z,23.70
2022-10-07T21:22:55.973Z,24.65
2022-10-07T21:25:24.332Z,26.35
2022-10-07T21:27:53.595Z,24.23
2022-10-07T21:30:23.449Z,25.55
2022-10-07T21:32:51.757Z,23.00
2022-10-07T21:35:20.513Z,22.95
2022-10-07T21:37:49.283Z,20.95
2022-10-07T21:40:18.096Z,21.42
2022-10-07T21:42:46.530Z,22.52
2022-10-07T21:45:16.683Z,21.90
2022-10-07T21:47:46.328Z,19.47
2022-10-07T21:50:15.142Z,21.02
2022-10-07T21:52:44.324Z,19.17
2022-10-07T21:55:17.683Z,20.70
2022-10-07T21:57:46.486Z,18.88
2022-10-07T22:00:16.764Z,24.15
2022-10-07T22:02:46.677Z,23.00
2022-10-07T22:05:16.363Z,20.30
2022-10-07T22:08:02.011Z,22.48
2022-10-07T22:10:30.783Z,26.05
2022-10-07T22:12:59.081Z,21.92
2022-10-07T22:15:27.752Z,22.77
2022-10-07T22:17:57.588Z,23.38
2022-10-07T22:20:26.354Z,20.77
2022-10-07T22:22:59.155Z,21.27
2022-10-07T22:25:28.588Z,23.70
2022-10-07T22:27:56.851Z,21.90
2022-10-07T22:30:25.554Z,19.83
2022-10-07T22:32:54.053Z,17.92
2022-10-07T22:35:30.539Z,18.77
2022-10-07T22:37:59.542Z,17.08
2022-10-07T22:40:27.889Z,17.42
2022-10-07T22:42:56.427Z,17.75
2022-10-07T22:45:25.040Z,19.10
2022-10-07T22:47:53.673Z,17.48
2022-10-07T22:50:23.327Z,17.17
2022-10-07T22:52:51.752Z,16.90
2022-10-07T22:55:21.316Z,15.40
2022-10-07T22:57:50.112Z,17.80
2022-10-07T23:00:18.729Z,16.40
2022-10-07T23:02:47.916Z,16.20
2022-10-07T23:05:17.194Z,16.90
2022-10-07T23:07:47.329Z,17.67
2022-10-07T23:10:15.800Z,16.63
2022-10-07T23:12:44.826Z,15.32
2022-10-07T23:15:14.008Z,17.73
2022-10-07T23:17:42.279Z,16.80
2022-10-07T23:20:11.252Z,17.30
2022-10-07T23:22:40.507Z,16.45
2022-10-07T23:25:10.895Z,14.82
2022-10-07T23:27:40.212Z,15.27
2022-10-07T23:30:10.796Z,15.18
2022-10-07T23:32:39.113Z,15.15
2022-10-07T23:35:08.151Z,16.58
2022-10-07T23:37:36.654Z,16.63
2022-10-07T23:40:05.864Z,16.23
2022-10-07T23:42:35.594Z,17.25
2022-10-07T23:45:04.117Z,17.85
2022-10-07T23:47:33.110Z,17.25
2022-10-07T23:50:01.618Z,18.63
2022-10-07T23:52:32.479Z,18.35
2022-10-07T23:55:00.809Z,18.92
2022-10-07T23:57:29.658Z,18.65
2022-10-07T23:59:59.330Z,19.30
